Winter Springs, FL

7:34 PM EDT on August 27, 2014 (GMT -0400)
Executive | Change Station
CLOSE
Current Station
Airport
Location: Orlando,
Elevation: 112 ft
Nearby Weather Stations

Elev 112 ft 28.55 °N, 81.33 °W | Updated 41 minutes ago

Clear
Clear
85 °F
Feels Like 88 °F
N
15
Wind Variable Wind from ENE

Today
High -- | Low -- °F
--% Chance of Precip.
Yesterday
High -- | Low -- °F
Precip. -- in
7:00 AM 7:52 PM
Waxing Crescent, 5% visible
Pressure 29.96 in
Visibility 10.0 miles
Clouds Clear
Heat Index 88 °F
Dew Point 68 °F
Humidity 57%
Rainfall 0.00 in
Snow Depth Not available.
UV 1 out of 12
Pollen 7.90 out of 12
Air Quality Not available.
Flu Activity Not available.
METAR KORL 272253Z 06013KT 10SM CLR 29/20 A2996 RMK AO2 SLP146 T02940200

More Conditions Fewer Conditions

Pressure 29.96 in
Visibility 10.0 miles
Clouds Clear
Heat Index 88 °F
Dew Point 68 °F
Humidity 57%
Rainfall 0.00 in
Snow Depth Not available.
UV 1 out of 12
Pollen 7.90 out of 12
Air Quality Not available.
Flu Activity Not available.
METAR KORL 272253Z 06013KT 10SM CLR 29/20 A2996 RMK AO2 SLP146 T02940200

More Conditions Fewer Conditions

Nowcast | as of 5:18 PM EDT on August 27, 2014

Isolated light showers will continue over the local Atlantic as well as over the interior with a diffuse East Coast sea breeze through the evening hours. Breezy northeast winds will diminish with sunset this evening. Showers will generally move to the south or south-southwest at 5 to 10 mph. A few sprinkles may brush the coast at times...but most activity will remain over the Atlantic. Additional details...including graphics are available online at: http://www.Srh.NOAA.Gov/mlb/blog.Php

×

10-Day Weather Forecast

Almanac

Astronomy

Aug. 27, 2014 Rise Set
Actual Time 7:00 AM EDT 7:52 PM EDT
Civil Twilight 6:36 AM EDT 8:16 PM EDT
Nautical Twilight 6:07 AM EDT 8:44 PM EDT
Astronomical Twilight 5:38 AM EDT 9:13 PM EDT
Moon 8:42 AM EDT 8:58 PM EDT
Length of Visible Light 13h 39m
Length of Day
12h 51m
Tomorrow will be 1m 37s shorter.
Waxing Crescent, 5% of the Moon is Illuminated
Today
Waxing Crescent
Sep 2
First Quarter
Sep 8
Full
Sep 15
Last Quarter
Sep 24
New

Today's Extremes

State Highs State Lows

Community

WunderPhotos

Upload Photos

1,747,816 photos uploaded!

Nearby

Snow Depth

Station Depth Elevation
No new snow has been reported.

Earthquake Activity

City Distance Mag. Time & Date
No recent earthquake activity has been reported nearby.
Minimum magnitude displayed is 2.5.

Coastal Water Temperatures

Place Temperature
Trident Pier, FL 82.9 °F
Fort Myers, FL 88.0 °F
Lake Worth, FL 87.1 °F

Nearby Weather Stations